Time;durP1;ratioP1;P1;durP2;ratioP2;P2;SDS_P1;SDS_P2;PMS_P1;PMS_P2;Temp;Humidity;BMP_temperature;BMP_pressure;BME280_temperature;BME280_humidity;BME280_pressure;Samples;Min_cycle;Max_cycle;Signal;HPM_P1;HPM_P2
2021/05/05 00:00:15;;;;;;;5.50;1.67;;;7.90;99.90;;;7.01;85.33;96323.91;5032299;28;20104;-66
2021/05/05 00:02:43;;;;;;;8.73;2.45;;;8.00;99.90;;;7.00;85.36;96327.41;5011273;28;20046;-65
2021/05/05 00:05:12;;;;;;;6.65;2.17;;;7.90;99.90;;;6.99;85.35;96329.16;5018231;28;20044;-66
2021/05/05 00:07:39;;;;;;;7.88;1.95;;;8.00;99.90;;;6.93;85.49;96329.44;5016729;28;20053;-65
2021/05/05 00:10:07;;;;;;;7.43;2.40;;;8.10;99.90;;;7.07;84.71;96323.59;5010940;28;20041;-66
2021/05/05 00:12:35;;;;;;;5.15;2.20;;;8.00;99.90;;;7.17;84.66;96342.06;5003784;28;20057;-66
2021/05/05 00:15:08;;;;;;;9.05;2.70;;;8.00;99.90;;;7.12;84.88;96342.31;5028483;28;20038;-66
2021/05/05 00:17:35;;;;;;;6.30;2.70;;;8.00;99.90;;;7.17;84.69;96347.25;5014013;28;20041;-65
2021/05/05 00:20:05;;;;;;;8.27;3.40;;;8.00;99.90;;;7.10;84.40;96349.28;5025922;28;20121;-65
2021/05/05 00:22:33;;;;;;;5.88;2.83;;;8.00;99.90;;;7.10;84.60;96352.69;4999119;28;20057;-65
2021/05/05 00:25:00;;;;;;;5.38;2.30;;;8.10;99.90;;;7.23;84.19;96341.75;5017556;28;20517;-65
2021/05/05 00:27:26;;;;;;;7.30;3.05;;;8.00;99.90;;;7.11;84.37;96325.97;4996168;28;20049;-65
2021/05/05 00:29:53;;;;;;;8.63;2.72;;;7.90;99.90;;;7.14;84.37;96317.25;5021257;28;20144;-66
2021/05/05 00:32:19;;;;;;;7.68;2.88;;;7.90;99.90;;;7.10;83.78;96328.63;5030629;28;20054;-65
2021/05/05 00:34:47;;;;;;;7.85;3.38;;;7.80;99.90;;;6.93;83.23;96316.53;5023879;28;20044;-64
2021/05/05 00:37:13;;;;;;;6.78;2.22;;;7.90;99.90;;;6.96;83.04;96313.00;4997671;28;20041;-65
2021/05/05 00:39:41;;;;;;;9.00;3.45;;;8.00;99.90;;;6.85;81.49;96329.81;5012407;28;20042;-65
2021/05/05 00:42:07;;;;;;;8.80;3.58;;;8.00;99.90;;;7.02;80.58;96302.38;5014529;28;20443;-65
2021/05/05 00:44:34;;;;;;;9.18;3.35;;;8.00;99.90;;;6.94;80.28;96301.91;5003414;28;20068;-65
2021/05/05 00:47:01;;;;;;;9.25;3.60;;;7.90;99.90;;;6.86;80.82;96282.47;5011583;28;20041;-65
2021/05/05 00:49:28;;;;;;;13.52;4.00;;;8.00;99.90;;;6.82;80.49;96293.00;5011839;28;20049;-65
2021/05/05 00:51:55;;;;;;;9.52;3.22;;;8.00;99.90;;;6.82;79.94;96280.09;4993544;28;20069;-65
2021/05/05 00:54:21;;;;;;;10.80;3.22;;;8.00;99.90;;;6.93;78.59;96289.91;5007516;28;20498;-65
2021/05/05 00:56:48;;;;;;;9.27;2.83;;;8.00;99.90;;;6.88;79.05;96283.22;5010251;28;20510;-65
2021/05/05 00:59:15;;;;;;;9.65;3.28;;;8.00;99.90;;;6.83;77.85;96286.94;5026887;28;20525;-65
2021/05/05 01:01:42;;;;;;;9.85;2.80;;;7.90;99.90;;;6.88;76.77;96285.81;5013729;28;20041;-65
2021/05/05 01:04:11;;;;;;;9.90;2.78;;;7.90;99.90;;;6.89;76.98;96294.41;4995812;28;20053;-65
2021/05/05 01:06:38;;;;;;;9.65;2.80;;;7.90;99.90;;;6.91;76.61;96308.91;4992803;28;20096;-65
2021/05/05 01:09:06;;;;;;;7.22;2.88;;;7.90;99.90;;;6.89;76.01;96297.81;5016682;28;20041;-65
2021/05/05 01:11:32;;;;;;;8.82;2.75;;;7.90;99.90;;;6.77;75.07;96311.28;5028034;28;20045;-65
2021/05/05 01:13:59;;;;;;;6.93;2.70;;;8.00;99.90;;;6.93;74.90;96308.78;5031571;28;20041;-65
2021/05/05 01:16:26;;;;;;;11.30;3.13;;;7.90;99.90;;;6.81;75.15;96311.97;4993472;28;20068;-65
2021/05/05 01:18:52;;;;;;;12.95;2.80;;;8.00;99.90;;;6.86;76.12;96303.09;5022268;28;20105;-65
2021/05/05 01:21:23;;;;;;;8.40;2.75;;;7.90;99.90;;;6.77;74.62;96323.34;5019478;28;20402;-65
2021/05/05 01:23:50;;;;;;;9.95;2.42;;;7.90;99.90;;;6.75;74.54;96309.69;5024516;28;20057;-65
2021/05/05 01:26:16;;;;;;;8.00;2.30;;;7.90;99.90;;;6.80;73.89;96307.75;5020975;28;20119;-65
2021/05/05 01:28:45;;;;;;;7.15;1.85;;;7.90;99.90;;;6.79;73.12;96313.78;5015508;28;20046;-65
2021/05/05 01:31:15;;;;;;;12.02;3.25;;;7.90;99.90;;;6.62;74.19;96299.97;5010648;28;20072;-65
2021/05/05 01:33:42;;;;;;;8.40;2.22;;;7.90;99.90;;;6.76;73.83;96301.88;4992522;28;20061;-65
2021/05/05 01:36:13;;;;;;;6.97;2.00;;;7.90;99.90;;;6.73;74.68;96301.19;5009120;28;20038;-65
2021/05/05 01:38:39;;;;;;;7.05;2.03;;;7.80;99.90;;;6.82;74.05;96306.75;5009415;28;20470;-65
2021/05/05 01:41:06;;;;;;;8.57;2.50;;;7.80;99.90;;;6.63;74.42;96316.25;5021210;28;20042;-65
2021/05/05 01:43:33;;;;;;;9.65;2.63;;;7.80;99.90;;;6.65;74.90;96310.13;5008668;28;20540;-65
2021/05/05 01:45:59;;;;;;;10.52;2.10;;;7.80;99.90;;;6.65;75.43;96324.75;5023799;28;20494;-65
2021/05/05 01:48:26;;;;;;;7.25;2.10;;;7.80;99.90;;;6.53;74.73;96320.19;5027197;28;20345;-65
2021/05/05 01:50:52;;;;;;;6.47;1.90;;;7.80;99.90;;;6.57;74.26;96319.97;4999777;28;20049;-65
2021/05/05 01:53:19;;;;;;;9.32;2.28;;;7.70;99.90;;;6.60;74.53;96300.94;5024751;28;20466;-65
2021/05/05 01:55:46;;;;;;;12.23;2.15;;;7.70;99.90;;;6.52;74.02;96297.88;5025329;28;20057;-65
2021/05/05 01:58:13;;;;;;;8.38;1.80;;;7.70;99.90;;;6.47;74.33;96293.78;4993682;28;20194;-65
2021/05/05 02:00:41;;;;;;;6.72;1.40;;;7.70;99.90;;;6.49;73.28;96284.22;5004018;28;20040;-65
2021/05/05 02:03:09;;;;;;;5.88;1.17;;;7.60;99.90;;;6.42;72.70;96300.88;5021318;28;20498;-65
2021/05/05 02:05:36;;;;;;;14.52;1.23;;;7.50;99.90;;;6.37;72.26;96284.81;4979354;28;20050;-65
2021/05/05 02:08:03;;;;;;;6.93;1.50;;;7.40;99.90;;;6.33;71.28;96283.28;5000991;28;20042;-65
2021/05/05 02:10:30;;;;;;;10.32;1.38;;;7.40;99.90;;;6.22;71.33;96282.94;4995514;28;20067;-65
2021/05/05 02:12:56;;;;;;;7.20;1.25;;;7.30;99.90;;;6.17;70.56;96287.47;5009608;28;20057;-65
2021/05/05 02:15:23;;;;;;;10.13;1.55;;;7.40;99.90;;;6.17;70.56;96292.63;5008331;28;20041;-65
2021/05/05 02:17:51;;;;;;;8.55;1.17;;;7.30;99.90;;;6.15;69.63;96291.84;5010347;28;20057;-65
2021/05/05 02:20:23;;;;;;;6.35;1.33;;;7.20;99.90;;;6.21;70.29;96289.00;5009380;28;20056;-65
2021/05/05 02:22:50;;;;;;;6.18;1.17;;;7.20;99.90;;;5.99;68.55;96302.00;5010260;28;20042;-65
2021/05/05 02:25:17;;;;;;;9.20;0.98;;;7.10;99.90;;;6.14;66.75;96278.16;5007717;28;20510;-64
2021/05/05 02:27:45;;;;;;;8.98;1.52;;;7.10;99.90;;;6.11;67.26;96292.88;5010310;28;20100;-65
2021/05/05 02:30:13;;;;;;;10.18;1.52;;;7.00;99.90;;;5.99;67.45;96296.88;5021151;28;20096;-65
2021/05/05 02:32:48;;;;;;;7.63;0.77;;;7.00;99.90;;;5.86;67.49;96299.97;5007046;28;21047;-65
2021/05/05 02:35:15;;;;;;;6.55;1.02;;;7.00;99.90;;;5.87;67.38;96304.19;5022857;28;20052;-65
2021/05/05 02:37:44;;;;;;;7.60;1.20;;;7.00;99.90;;;5.71;66.86;96304.94;5000097;28;20042;-65
2021/05/05 02:40:12;;;;;;;5.43;0.82;;;6.90;99.90;;;5.77;67.25;96309.81;4990775;28;20045;-65
2021/05/05 02:42:39;;;;;;;8.25;1.05;;;7.00;99.90;;;5.90;66.25;96299.81;5025517;28;20044;-65
2021/05/05 02:45:07;;;;;;;10.75;1.17;;;6.80;99.90;;;5.58;66.42;96310.59;5019914;28;20041;-65
2021/05/05 02:47:34;;;;;;;6.32;0.82;;;6.90;99.90;;;5.63;66.09;96315.56;5003091;28;20054;-65
2021/05/05 02:50:02;;;;;;;6.13;1.13;;;6.90;99.90;;;5.60;66.32;96316.53;5025545;28;20076;-65
2021/05/05 02:52:29;;;;;;;9.10;1.30;;;6.80;99.90;;;5.56;66.07;96324.44;5026940;28;20101;-65
2021/05/05 02:54:55;;;;;;;7.95;1.13;;;6.80;99.90;;;5.43;67.42;96304.41;4995688;28;21282;-65
2021/05/05 02:57:22;;;;;;;11.38;1.38;;;6.70;99.90;;;5.50;66.05;96315.28;5018917;28;20037;-65
2021/05/05 02:59:49;;;;;;;8.48;1.33;;;6.70;99.90;;;5.59;65.83;96304.56;5026455;28;20099;-65
2021/05/05 03:02:16;;;;;;;8.63;1.20;;;6.60;99.90;;;5.37;66.64;96316.69;4992455;28;20108;-65
2021/05/05 03:04:42;;;;;;;7.68;1.08;;;6.60;99.90;;;5.44;66.47;96324.06;5008573;28;20230;-65
2021/05/05 03:07:09;;;;;;;8.32;1.30;;;6.50;99.90;;;5.33;66.99;96328.81;5008921;28;20046;-64
2021/05/05 03:09:36;;;;;;;8.77;1.35;;;6.40;99.90;;;5.32;67.46;96322.03;5010102;28;20458;-65
2021/05/05 03:12:03;;;;;;;10.93;1.42;;;6.30;99.90;;;5.21;67.67;96317.31;5012907;28;20532;-65
2021/05/05 03:14:30;;;;;;;6.75;1.20;;;6.30;99.90;;;5.16;68.02;96324.41;5027900;28;20046;-65
2021/05/05 03:16:58;;;;;;;6.07;1.23;;;6.20;99.90;;;5.11;68.21;96323.75;5024001;28;20080;-65
2021/05/05 03:19:25;;;;;;;9.20;1.33;;;6.20;99.90;;;5.14;68.26;96325.34;5024005;28;20211;-64
2021/05/05 03:21:51;;;;;;;8.88;1.10;;;6.10;99.90;;;5.14;67.72;96322.78;5018360;28;20374;-65
2021/05/05 03:24:18;;;;;;;8.30;0.98;;;6.10;99.90;;;4.94;68.50;96319.28;5024540;28;20133;-65
2021/05/05 03:26:44;;;;;;;7.55;1.38;;;6.10;99.90;;;4.93;68.36;96327.91;5024895;28;20042;-65
2021/05/05 03:29:11;;;;;;;11.13;1.10;;;6.00;99.90;;;4.99;67.63;96332.78;4999425;28;20041;-65
2021/05/05 03:31:41;;;;;;;8.60;1.30;;;6.00;99.90;;;4.94;68.04;96324.41;4997863;28;20046;-65
2021/05/05 03:34:07;;;;;;;8.57;1.00;;;6.00;99.90;;;4.78;68.83;96323.38;5012722;28;20104;-64
2021/05/05 03:36:34;;;;;;;7.60;1.52;;;5.90;99.90;;;4.81;68.23;96333.50;5021681;28;20041;-65
2021/05/05 03:39:04;;;;;;;15.07;1.38;;;5.80;99.90;;;4.71;68.70;96332.22;5032645;28;20042;-65
2021/05/05 03:41:32;;;;;;;7.20;1.15;;;5.80;99.90;;;4.87;68.24;96335.03;5007420;28;20042;-65
2021/05/05 03:43:58;;;;;;;6.20;1.08;;;5.70;99.90;;;4.81;68.30;96338.66;4996505;28;20502;-65
2021/05/05 03:46:25;;;;;;;6.70;1.27;;;5.60;99.90;;;4.68;68.65;96353.75;4995554;28;20053;-65
2021/05/05 03:48:52;;;;;;;13.13;1.45;;;5.60;99.90;;;4.71;69.50;96342.50;5003972;28;20038;-64
2021/05/05 03:51:19;;;;;;;6.68;1.10;;;5.60;99.90;;;4.71;69.13;96345.06;5013806;28;20387;-65
2021/05/05 03:53:46;;;;;;;7.75;1.63;;;5.50;99.90;;;4.64;69.36;96353.91;5012243;28;20115;-65
2021/05/05 03:56:13;;;;;;;9.82;1.40;;;5.40;99.90;;;4.54;69.11;96356.00;5014195;28;20038;-65
2021/05/05 03:58:39;;;;;;;8.43;1.60;;;5.50;99.90;;;4.54;69.63;96356.00;5027157;28;20052;-65
2021/05/05 04:01:07;;;;;;;16.40;1.98;;;5.50;99.90;;;4.53;69.49;96368.00;5015362;28;20108;-65
2021/05/05 04:03:33;;;;;;;17.10;2.47;;;5.50;99.90;;;4.68;69.51;96364.03;5013783;28;20068;-65
2021/05/05 04:06:00;;;;;;;14.18;1.42;;;5.50;99.90;;;4.48;69.70;96366.53;5015794;28;20052;-65
2021/05/05 04:08:26;;;;;;;15.10;2.08;;;5.40;99.90;;;4.39;70.14;96365.97;5000460;28;20506;-65
2021/05/05 04:10:53;;;;;;;8.82;1.15;;;5.40;99.90;;;4.38;70.04;96368.59;5013381;28;20048;-65
2021/05/05 04:13:20;;;;;;;9.70;1.20;;;5.40;99.90;;;4.54;69.71;96369.69;5012460;28;20042;-65
2021/05/05 04:16:04;;;;;;;14.10;1.77;;;5.30;99.90;;;4.37;69.74;96369.47;4987042;28;20053;-65
2021/05/05 04:18:49;;;;;;;10.13;1.30;;;5.20;99.90;;;4.33;69.96;96376.47;5005292;28;20037;-65
2021/05/05 04:21:34;;;;;;;15.55;1.52;;;5.20;99.90;;;4.31;71.10;96374.84;5005577;28;20073;-65
2021/05/05 04:24:19;;;;;;;10.18;1.38;;;5.10;99.90;;;4.13;71.60;96382.34;5012683;28;20026;-64
2021/05/05 04:26:48;;;;;;;11.90;1.85;;;5.10;99.90;;;4.13;71.73;96384.06;5019357;28;20050;-65
2021/05/05 04:29:18;;;;;;;16.27;2.25;;;5.10;99.90;;;4.10;71.70;96387.56;4998949;28;20143;-65
2021/05/05 04:31:51;;;;;;;11.13;1.25;;;5.10;99.90;;;4.09;71.70;96388.47;5016991;28;20634;-64
2021/05/05 04:34:19;;;;;;;7.80;1.73;;;5.00;99.90;;;4.15;71.43;96393.41;5022966;28;20038;-65
2021/05/05 04:36:46;;;;;;;10.82;1.40;;;5.00;99.90;;;4.09;71.69;96390.22;5011409;28;20050;-65
2021/05/05 04:39:13;;;;;;;10.23;1.48;;;4.90;99.90;;;4.15;71.33;96397.69;5005577;28;20450;-65
2021/05/05 04:41:39;;;;;;;13.05;1.83;;;4.90;99.90;;;3.98;72.39;96404.25;4995308;28;20046;-66
2021/05/05 04:44:07;;;;;;;14.70;1.60;;;4.90;99.90;;;4.20;71.12;96400.94;4997331;28;20041;-65
2021/05/05 04:46:33;;;;;;;11.02;1.40;;;4.90;99.90;;;4.12;71.56;96401.19;4996553;28;20049;-65
2021/05/05 04:49:00;;;;;;;11.18;1.75;;;4.90;99.90;;;4.01;71.69;96416.13;4998267;28;20053;-65
2021/05/05 04:51:27;;;;;;;10.07;1.73;;;4.90;99.90;;;4.03;72.33;96416.09;5015676;28;20041;-65
2021/05/05 04:53:53;;;;;;;7.32;1.60;;;5.00;99.90;;;4.08;71.54;96432.16;5013918;28;20041;-65
2021/05/05 04:56:20;;;;;;;13.73;1.98;;;5.10;99.90;;;4.13;71.87;96427.75;5017250;28;20075;-65
2021/05/05 04:58:46;;;;;;;7.90;1.42;;;5.10;99.90;;;4.09;72.51;96428.72;5011696;28;20046;-65
2021/05/05 05:01:13;;;;;;;6.60;1.02;;;5.10;99.90;;;4.25;71.06;96424.72;5009516;28;20045;-65
2021/05/05 05:03:40;;;;;;;19.92;2.65;;;5.10;99.90;;;4.25;71.53;96432.41;5011065;28;20041;-65
2021/05/05 05:06:06;;;;;;;10.38;1.42;;;5.10;99.90;;;4.24;72.23;96433.28;5012052;28;20049;-65
2021/05/05 05:08:33;;;;;;;17.77;1.63;;;5.20;99.90;;;4.11;72.31;96438.06;5009909;28;20046;-65
2021/05/05 05:10:59;;;;;;;10.68;1.58;;;5.20;99.90;;;4.21;72.03;96437.72;4986045;28;20100;-65
2021/05/05 05:13:26;;;;;;;7.93;2.00;;;5.30;99.90;;;4.33;71.74;96452.69;5031505;28;20044;-65
2021/05/05 05:15:52;;;;;;;9.15;1.15;;;5.40;99.90;;;4.37;71.27;96454.25;5031852;28;20041;-65
2021/05/05 05:18:20;;;;;;;14.80;1.73;;;5.40;99.90;;;4.39;71.71;96455.88;5031445;28;20045;-65
2021/05/05 05:20:46;;;;;;;7.25;1.20;;;5.50;99.90;;;4.50;71.40;96458.06;5023534;28;20045;-65
2021/05/05 05:23:13;;;;;;;10.60;1.58;;;5.50;99.90;;;4.50;71.22;96450.34;5010029;28;20046;-66
2021/05/05 05:25:39;;;;;;;9.20;1.45;;;5.60;99.90;;;4.36;72.29;96461.13;5010379;28;20064;-65
2021/05/05 05:28:06;;;;;;;7.75;1.33;;;5.70;99.90;;;4.59;71.05;96462.88;5031142;28;20045;-65
2021/05/05 05:30:33;;;;;;;10.32;1.73;;;5.70;99.90;;;4.51;71.51;96462.28;5030146;28;20041;-65
2021/05/05 05:32:59;;;;;;;12.20;1.48;;;5.80;99.90;;;4.42;71.48;96479.78;5026633;28;20152;-65
2021/05/05 05:35:26;;;;;;;12.93;2.13;;;5.90;99.90;;;4.67;71.53;96469.47;5011058;28;20391;-65
2021/05/05 05:37:53;;;;;;;8.48;1.83;;;5.90;99.90;;;4.66;71.07;96466.06;5011206;28;20477;-65
2021/05/05 05:40:19;;;;;;;13.35;1.75;;;5.90;99.90;;;4.43;71.70;96463.50;5010979;28;20471;-65
2021/05/05 05:42:46;;;;;;;15.57;2.00;;;6.00;99.90;;;4.77;71.55;96465.66;4994354;28;20402;-65
2021/05/05 05:45:15;;;;;;;12.85;1.70;;;6.00;99.90;;;4.75;71.08;96477.72;5024148;28;20042;-65
2021/05/05 05:47:43;;;;;;;12.75;1.63;;;6.00;99.90;;;4.60;71.62;96481.69;5013133;28;20064;-65
2021/05/05 05:50:11;;;;;;;15.65;2.47;;;6.10;99.90;;;4.59;71.52;96492.88;5015733;28;20426;-65
2021/05/05 05:52:38;;;;;;;12.35;1.63;;;6.20;99.90;;;4.61;71.41;96483.38;5008861;28;20045;-65
2021/05/05 05:55:06;;;;;;;12.80;1.40;;;6.30;99.90;;;4.92;71.76;96482.22;5013689;28;20140;-65
2021/05/05 05:57:33;;;;;;;12.35;2.15;;;6.40;99.90;;;4.76;71.23;96503.38;4997589;28;20038;-65
2021/05/05 06:00:00;;;;;;;12.93;1.83;;;6.40;99.90;;;4.84;71.97;96499.69;5015324;28;20046;-65
2021/05/05 06:02:26;;;;;;;15.65;1.88;;;6.40;99.90;;;4.85;71.11;96506.50;5010402;28;20504;-64
2021/05/05 06:04:53;;;;;;;13.18;2.20;;;6.40;99.90;;;4.88;71.65;96508.94;5010783;28;20100;-65
2021/05/05 06:07:19;;;;;;;11.95;1.67;;;6.50;99.90;;;4.94;71.04;96499.28;5015676;28;20053;-65
2021/05/05 06:09:46;;;;;;;10.48;1.52;;;6.50;99.90;;;4.98;71.42;96492.31;5019431;28;20045;-65
2021/05/05 06:12:12;;;;;;;12.48;1.85;;;6.40;99.90;;;5.01;70.40;96503.28;4993930;28;20049;-65
2021/05/05 06:14:39;;;;;;;13.35;2.08;;;6.40;99.90;;;5.19;71.03;96498.34;5030551;28;20128;-65
2021/05/05 06:17:06;;;;;;;11.05;2.28;;;6.40;99.90;;;5.13;71.35;96498.56;5006452;28;20042;-65
2021/05/05 06:19:32;;;;;;;12.38;1.55;;;6.40;99.90;;;4.79;71.65;96505.84;5011769;28;20152;-65
2021/05/05 06:21:59;;;;;;;10.73;2.60;;;6.50;99.90;;;5.00;71.45;96517.06;5029871;28;20073;-65
2021/05/05 06:24:26;;;;;;;11.60;1.88;;;6.60;99.90;;;5.24;70.80;96504.16;5027510;28;20049;-65
2021/05/05 06:26:52;;;;;;;13.00;1.92;;;6.50;99.90;;;5.22;70.34;96506.81;5010332;28;20046;-65
2021/05/05 06:29:19;;;;;;;17.42;2.60;;;6.60;99.90;;;5.08;70.70;96526.22;5027976;28;20045;-65
2021/05/05 06:31:45;;;;;;;11.77;2.15;;;6.70;99.90;;;5.10;71.19;96517.53;5029573;28;20125;-64
2021/05/05 06:34:12;;;;;;;11.13;1.80;;;6.70;99.90;;;4.94;71.78;96519.84;5012034;28;20057;-65
2021/05/05 06:36:39;;;;;;;11.93;2.08;;;6.70;99.90;;;4.94;71.28;96537.03;5010666;28;20053;-65
2021/05/05 06:39:08;;;;;;;16.63;2.35;;;6.70;99.90;;;5.26;70.55;96525.53;5008704;28;20402;-65
2021/05/05 06:41:36;;;;;;;17.02;2.05;;;6.70;99.90;;;5.34;70.78;96526.06;5029301;28;20521;-65
2021/05/05 06:44:03;;;;;;;18.98;2.20;;;6.80;99.90;;;5.08;71.16;96524.47;5012980;28;20045;-65
2021/05/05 06:46:30;;;;;;;14.25;2.33;;;6.90;99.90;;;5.15;70.12;96535.38;4990126;28;20082;-65
2021/05/05 06:48:58;;;;;;;14.10;1.98;;;6.80;99.90;;;5.10;70.03;96543.25;5022284;28;20114;-65
2021/05/05 06:51:26;;;;;;;13.70;1.70;;;7.00;99.90;;;5.24;70.27;96530.75;5012218;28;20049;-65
2021/05/05 06:53:52;;;;;;;16.70;2.45;;;7.00;99.90;;;5.37;69.41;96536.25;4991778;28;20050;-65
2021/05/05 06:56:19;;;;;;;15.75;2.10;;;7.10;99.90;;;5.46;69.17;96514.47;5001412;28;20034;-64
2021/05/05 06:58:46;;;;;;;14.23;2.17;;;7.20;99.90;;;5.66;69.03;96517.09;4998588;28;20065;-65
2021/05/05 07:01:13;;;;;;;15.18;2.30;;;7.20;99.90;;;5.74;67.85;96563.09;5013620;28;20030;-65
2021/05/05 07:03:44;;;;;;;16.65;1.95;;;7.40;99.90;;;5.50;69.12;96510.88;5012206;28;20140;-65
2021/05/05 07:06:11;;;;;;;13.95;2.08;;;7.30;99.90;;;5.44;68.90;96517.09;5005153;28;20219;-65
2021/05/05 07:08:38;;;;;;;9.43;2.28;;;7.40;99.90;;;5.95;67.55;96502.19;4972889;28;20038;-65
2021/05/05 07:11:04;;;;;;;17.20;2.78;;;7.30;99.90;;;6.12;68.08;96505.84;5005262;28;20499;-65
2021/05/05 07:13:31;;;;;;;14.10;1.92;;;7.60;99.90;;;6.24;66.91;96516.44;5016003;28;20050;-65
2021/05/05 07:15:57;;;;;;;10.45;1.63;;;7.90;99.90;;;6.60;64.32;96512.38;5008100;28;20065;-65
2021/05/05 07:18:24;;;;;;;4.28;1.20;;;7.90;99.90;;;6.40;64.42;96479.72;5010275;28;20072;-65
2021/05/05 07:20:50;;;;;;;13.18;1.02;;;7.60;99.90;;;6.11;65.26;96501.56;4999131;28;20074;-65
2021/05/05 07:23:17;;;;;;;10.70;1.23;;;7.70;99.90;;;6.14;65.08;96550.41;4990984;28;20061;-65
2021/05/05 07:25:44;;;;;;;6.15;1.58;;;7.80;99.90;;;5.93;63.91;96528.88;5010303;28;20049;-65
2021/05/05 07:28:10;;;;;;;9.15;1.63;;;7.60;99.90;;;5.83;65.14;96531.84;4990458;28;20053;-65
2021/05/05 07:30:37;;;;;;;16.08;1.60;;;7.60;99.90;;;5.85;65.15;96518.91;5005922;28;20414;-65
2021/05/05 07:33:05;;;;;;;6.53;1.08;;;7.70;99.90;;;6.18;63.10;96519.31;5028117;28;20140;-66
2021/05/05 07:35:32;;;;;;;8.43;1.73;;;7.60;99.90;;;5.99;64.85;96537.25;5028364;28;20046;-65
2021/05/05 07:46:16;;;;;;;10.95;1.10;;;8.40;99.90;;;7.03;62.29;96533.69;5019142;28;20490;-65
2021/05/05 07:48:52;;;;;;;13.98;1.88;;;8.70;99.90;;;6.63;61.16;96536.25;5025038;28;20049;-65
2021/05/05 07:51:19;;;;;;;9.30;1.55;;;8.90;99.90;;;7.26;60.94;96533.44;5027296;28;20054;-65
2021/05/05 07:53:45;;;;;;;4.28;0.90;;;9.00;99.90;;;6.71;60.99;96559.16;4996562;28;20165;-65
2021/05/05 07:56:12;;;;;;;8.05;1.52;;;8.80;99.90;;;6.89;60.01;96549.78;5015691;28;20215;-65
2021/05/05 07:58:40;;;;;;;6.72;1.17;;;8.80;99.90;;;7.06;59.83;96539.50;4985824;28;20041;-65
2021/05/05 08:01:08;;;;;;;4.72;1.45;;;8.90;99.90;;;6.68;60.76;96544.66;5021434;28;20044;-65
2021/05/05 08:03:35;;;;;;;5.55;1.33;;;9.00;99.90;;;6.91;60.00;96537.63;5013842;28;20050;-65
2021/05/05 08:06:02;;;;;;;7.25;1.48;;;8.40;99.90;;;6.54;62.27;96508.28;4986962;28;20046;-65
2021/05/05 08:08:29;;;;;;;12.52;1.98;;;8.00;99.90;;;6.18;63.66;96551.94;4989284;28;20049;-65
2021/05/05 08:10:56;;;;;;;9.32;0.98;;;7.60;99.90;;;6.21;65.18;96562.97;4997503;28;20045;-66
2021/05/05 08:13:23;;;;;;;8.98;0.88;;;7.40;99.90;;;5.99;67.64;96557.00;5021508;28;20045;-66
2021/05/05 08:15:50;;;;;;;6.88;1.05;;;7.20;99.90;;;6.01;67.70;96555.22;5016223;28;20042;-66
2021/05/05 08:18:16;;;;;;;7.63;1.05;;;7.20;99.90;;;6.35;68.64;96551.25;5024694;28;20045;-65
2021/05/05 08:20:43;;;;;;;8.27;1.33;;;7.20;99.90;;;6.88;68.01;96548.09;5016385;28;20038;-65
2021/05/05 08:23:13;;;;;;;6.78;1.27;;;7.60;99.90;;;7.88;64.36;96533.97;5012905;28;20046;-65
2021/05/05 08:25:42;;;;;;;5.65;1.20;;;8.00;99.90;;;6.96;60.61;96545.19;5012616;28;20046;-65
2021/05/05 08:28:08;;;;;;;5.05;0.93;;;8.60;99.90;;;7.56;58.55;96551.00;5028866;28;20045;-65
2021/05/05 08:30:35;;;;;;;5.15;1.00;;;9.30;99.90;;;7.59;57.68;96525.03;5022621;28;20045;-65
2021/05/05 08:33:02;;;;;;;10.85;1.20;;;9.80;99.90;;;7.26;59.23;96541.19;5008251;28;20053;-66
2021/05/05 08:35:29;;;;;;;6.93;1.13;;;9.90;99.90;;;7.41;57.95;96559.47;5016967;28;20046;-66
2021/05/05 08:37:56;;;;;;;2.83;1.00;;;9.50;99.90;;;6.93;60.17;96543.53;5010472;28;20045;-66
2021/05/05 08:40:23;;;;;;;5.65;1.13;;;8.90;99.90;;;6.21;59.99;96595.63;5014190;28;20790;-65
2021/05/05 08:42:50;;;;;;;8.88;1.67;;;8.30;99.90;;;5.76;63.75;96708.09;5006014;28;20096;-65
2021/05/05 08:45:20;;;;;;;4.55;1.00;;;7.70;99.90;;;4.48;72.89;96667.16;5014167;28;20395;-65
2021/05/05 08:47:50;;;;;;;2.90;0.93;;;6.60;99.90;;;4.14;76.32;96655.41;5018336;28;20050;-65
2021/05/05 08:50:24;;;;;;;3.50;1.35;;;6.10;99.90;;;4.05;77.23;96713.03;5013014;28;20054;-66
2021/05/05 08:52:53;;;;;;;2.50;0.90;;;5.90;99.90;;;5.06;76.36;96687.47;5004888;28;20057;-65
2021/05/05 08:55:22;;;;;;;4.32;1.35;;;5.30;99.90;;;3.41;80.06;96673.88;5008919;28;20485;-65
2021/05/05 08:57:49;;;;;;;3.80;0.50;;;4.50;99.90;;;3.10;81.71;96687.53;4994012;28;20499;-65
2021/05/05 09:00:21;;;;;;;2.85;0.60;;;4.30;99.90;;;3.43;82.38;96680.63;5023654;28;20050;-65
2021/05/05 09:02:48;;;;;;;5.25;0.90;;;4.60;99.90;;;4.20;81.19;96675.75;4994517;28;20048;-65
2021/05/05 09:05:54;;;;;;;1.65;0.80;;;5.30;99.90;;;5.43;76.31;96662.13;5006706;28;20135;-65
2021/05/05 09:08:30;;;;;;;1.52;0.63;;;6.20;99.90;;;5.37;74.29;96662.31;4977749;28;20046;-65
2021/05/05 09:11:01;;;;;;;2.03;0.68;;;6.80;99.90;;;5.41;76.54;96692.22;4995623;28;20060;-66
2021/05/05 09:13:57;;;;;;;2.65;0.60;;;6.90;99.90;;;4.70;78.15;96709.25;4994774;28;20042;-65
2021/05/05 09:16:30;;;;;;;2.28;0.70;;;6.80;99.90;;;4.01;79.60;96731.97;5018478;28;20523;-65
2021/05/05 09:19:12;;;;;;;2.38;0.50;;;6.10;99.90;;;4.01;100.00;57768.22;5004138;28;20037;-65
2021/05/05 09:21:42;;;;;;;2.65;0.60;;;5.60;99.90;;;4.21;78.58;96710.81;4985121;28;20067;-65
2021/05/05 09:24:26;;;;;;;1.45;0.45;;;5.50;99.90;;;4.31;77.49;96708.78;4993992;28;20048;-65
2021/05/05 09:27:00;;;;;;;0.90;0.40;;;5.80;99.90;;;3.54;78.32;96721.38;5012144;28;20042;-65
2021/05/05 09:29:45;;;;;;;2.85;0.70;;;6.20;99.90;;;3.97;79.27;96715.00;5009507;28;20038;-64
2021/05/05 09:32:20;;;;;;;2.88;0.63;;;5.80;99.90;;;3.27;80.81;96723.00;4992475;28;20034;-64
2021/05/05 09:35:00;;;;;;;5.85;0.80;;;5.40;99.90;;;2.72;83.47;96746.59;5023476;28;20124;-64
2021/05/05 09:37:28;;;;;;;2.67;0.55;;;4.80;99.90;;;2.69;81.97;96697.16;4995513;28;20105;-64
2021/05/05 09:40:08;;;;;;;7.10;2.00;;;4.50;99.90;;;2.64;81.43;96699.00;5017890;28;20137;-65
2021/05/05 09:42:36;;;;;;;5.72;1.00;;;4.40;99.90;;;3.13;79.81;96692.59;4991518;28;20072;-65
2021/05/05 09:45:13;;;;;;;2.25;0.73;;;4.50;99.90;;;3.96;76.96;96703.88;5016683;28;20045;-64
2021/05/05 09:47:54;;;;;;;2.22;0.60;;;5.30;99.90;;;4.86;74.46;96673.59;5018035;28;20502;-65
2021/05/05 09:50:33;;;;;;;1.65;0.73;;;6.10;99.90;;;5.42;73.89;96673.28;5008064;28;20054;-65
2021/05/05 09:53:25;;;;;;;6.25;1.00;;;6.80;99.90;;;6.25;75.07;96666.78;5004177;28;20049;-65
2021/05/05 09:55:52;;;;;;;1.98;0.63;;;7.50;99.90;;;5.69;71.21;96701.50;4993289;28;20470;-65
2021/05/05 09:58:37;;;;;;;4.47;0.80;;;7.90;99.90;;;6.21;70.30;96688.41;5024358;28;20121;-65
2021/05/05 10:01:07;;;;;;;2.25;0.75;;;8.10;99.90;;;6.35;69.47;96709.28;5023425;28;20273;-65
2021/05/05 10:03:54;;;;;;;2.08;0.60;;;8.10;99.90;;;6.14;70.95;96705.00;5001307;28;20474;-65
2021/05/05 10:06:33;;;;;;;1.23;0.40;;;8.20;99.90;;;6.68;69.15;96688.19;4977436;28;20132;-64
2021/05/05 10:09:06;;;;;;;2.67;0.70;;;8.40;99.90;;;6.88;69.29;96692.53;4999172;28;20051;-65
2021/05/05 10:11:51;;;;;;;4.75;0.93;;;8.90;99.90;;;6.95;68.30;96698.28;5015549;28;20141;-65
2021/05/05 10:14:20;;;;;;;5.47;1.65;;;8.90;99.90;;;5.65;71.03;96723.94;5004627;28;20119;-65
2021/05/05 10:16:52;;;;;;;2.30;0.82;;;8.80;99.90;;;5.99;71.01;96707.25;5009912;28;20104;-64
2021/05/05 10:19:27;;;;;;;3.60;1.02;;;8.30;99.90;;;6.51;70.80;96713.84;4992085;28;20042;-65
2021/05/05 10:22:06;;;;;;;3.70;0.98;;;8.20;99.90;;;7.44;67.46;96689.25;5011089;28;20046;-64
2021/05/05 10:24:39;;;;;;;3.55;0.93;;;8.90;99.90;;;7.63;65.45;96699.59;5018263;28;20425;-65
2021/05/05 10:27:12;;;;;;;3.58;0.47;;;9.40;99.90;;;7.79;62.19;96689.41;4984417;28;20366;-65
2021/05/05 10:29:44;;;;;;;3.60;0.65;;;9.30;99.90;;;8.03;60.97;96700.38;5000291;28;20417;-65
2021/05/05 10:32:13;;;;;;;1.83;0.60;;;9.60;99.90;;;7.77;60.37;96698.16;5026300;28;20052;-64
2021/05/05 10:34:44;;;;;;;5.88;0.70;;;10.30;99.90;;;8.36;57.52;96707.44;5021042;28;20045;-65
2021/05/05 10:37:11;;;;;;;2.75;0.70;;;10.70;99.90;;;7.92;56.11;96707.78;5024115;28;20059;-65
2021/05/05 10:39:43;;;;;;;4.28;0.80;;;10.70;99.90;;;7.63;59.33;96701.34;5001291;28;20104;-65
2021/05/05 10:42:17;;;;;;;5.53;0.80;;;10.40;99.90;;;7.34;58.12;96742.19;5009899;28;20038;-65
2021/05/05 10:44:53;;;;;;;2.75;0.63;;;10.20;99.90;;;7.14;59.57;96732.75;4992039;28;20049;-65